Time;durP1;ratioP1;P1;durP2;ratioP2;P2;SDS_P1;SDS_P2;PMS_P1;PMS_P2;Temp;Humidity;BMP_temperature;BMP_pressure;BME280_temperature;BME280_humidity;BME280_pressure;Samples;Min_cycle;Max_cycle;Signal;HPM_P1;HPM_P2
2023/08/30 00:01:17;;;;;;;1.3;0.7;;;;;;;;;;;;;
2023/08/30 00:03:43;;;;;;;2.1;1;;;;;;;;;;;;;
2023/08/30 00:06:09;;;;;;;2.5;1;;;;;;;;;;;;;
2023/08/30 00:08:34;;;;;;;0.8;0.8;;;;;;;;;;;;;
2023/08/30 00:10:59;;;;;;;0.7;0.7;;;;;;;;;;;;;
2023/08/30 00:13:25;;;;;;;0.5;0.5;;;;;;;;;;;;;
2023/08/30 00:15:52;;;;;;;0.5;0.4;;;;;;;;;;;;;
2023/08/30 00:18:18;;;;;;;1.2;0.5;;;;;;;;;;;;;
2023/08/30 00:20:42;;;;;;;0.8;0.6;;;;;;;;;;;;;
2023/08/30 00:23:07;;;;;;;0.6;0.6;;;;;;;;;;;;;
2023/08/30 00:25:32;;;;;;;1.3;0.8;;;;;;;;;;;;;
2023/08/30 00:27:58;;;;;;;1.7;0.9;;;;;;;;;;;;;
2023/08/30 00:30:23;;;;;;;0.8;0.8;;;;;;;;;;;;;
2023/08/30 00:32:48;;;;;;;0.4;0.3;;;;;;;;;;;;;
2023/08/30 00:35:14;;;;;;;0.5;0.5;;;;;;;;;;;;;
2023/08/30 00:37:39;;;;;;;0.4;0.4;;;;;;;;;;;;;
2023/08/30 00:40:04;;;;;;;0.4;0.4;;;;;;;;;;;;;
2023/08/30 00:42:29;;;;;;;0.6;0.4;;;;;;;;;;;;;
2023/08/30 00:44:54;;;;;;;0.3;0.3;;;;;;;;;;;;;
2023/08/30 00:47:20;;;;;;;0.4;0.4;;;;;;;;;;;;;
2023/08/30 00:49:45;;;;;;;1.1;0.4;;;;;;;;;;;;;
2023/08/30 00:52:10;;;;;;;0.4;0.4;;;;;;;;;;;;;
2023/08/30 00:54:35;;;;;;;0.6;0.3;;;;;;;;;;;;;
2023/08/30 00:57:04;;;;;;;0.5;0.5;;;;;;;;;;;;;
2023/08/30 00:59:29;;;;;;;1.3;0.6;;;;;;;;;;;;;
2023/08/30 01:01:54;;;;;;;0.7;0.7;;;;;;;;;;;;;
2023/08/30 01:04:19;;;;;;;0.9;0.7;;;;;;;;;;;;;
2023/08/30 01:06:48;;;;;;;0.8;0.7;;;;;;;;;;;;;
2023/08/30 01:09:13;;;;;;;0.8;0.6;;;;;;;;;;;;;
2023/08/30 01:11:41;;;;;;;0.5;0.5;;;;;;;;;;;;;
2023/08/30 01:14:06;;;;;;;0.5;0.5;;;;;;;;;;;;;
2023/08/30 01:16:31;;;;;;;0.7;0.5;;;;;;;;;;;;;
2023/08/30 01:18:56;;;;;;;0.6;0.6;;;;;;;;;;;;;
2023/08/30 01:21:23;;;;;;;0.5;0.5;;;;;;;;;;;;;
2023/08/30 01:23:48;;;;;;;0.6;0.6;;;;;;;;;;;;;
2023/08/30 01:26:13;;;;;;;0.8;0.5;;;;;;;;;;;;;
2023/08/30 01:28:39;;;;;;;1.6;0.7;;;;;;;;;;;;;
2023/08/30 01:31:03;;;;;;;0.7;0.6;;;;;;;;;;;;;
2023/08/30 01:33:29;;;;;;;1.5;0.6;;;;;;;;;;;;;
2023/08/30 01:35:54;;;;;;;1;0.8;;;;;;;;;;;;;
2023/08/30 01:38:22;;;;;;;1.1;0.5;;;;;;;;;;;;;
2023/08/30 01:40:47;;;;;;;0.8;0.8;;;;;;;;;;;;;
2023/08/30 01:43:13;;;;;;;0.6;0.6;;;;;;;;;;;;;
2023/08/30 01:45:38;;;;;;;1.2;0.6;;;;;;;;;;;;;
2023/08/30 01:48:04;;;;;;;1.4;0.9;;;;;;;;;;;;;
2023/08/30 01:50:28;;;;;;;1.3;1.2;;;;;;;;;;;;;
2023/08/30 01:52:56;;;;;;;2.6;1.4;;;;;;;;;;;;;
2023/08/30 01:55:20;;;;;;;3;1.2;;;;;;;;;;;;;
2023/08/30 01:57:48;;;;;;;2.7;1.2;;;;;;;;;;;;;
2023/08/30 02:00:13;;;;;;;2.2;1.2;;;;;;;;;;;;;
2023/08/30 02:02:41;;;;;;;0.6;0.6;;;;;;;;;;;;;
2023/08/30 02:05:06;;;;;;;0.6;0.6;;;;;;;;;;;;;
2023/08/30 02:07:32;;;;;;;1.2;0.8;;;;;;;;;;;;;
2023/08/30 02:09:57;;;;;;;3.2;1.1;;;;;;;;;;;;;
2023/08/30 02:12:24;;;;;;;2.5;1.1;;;;;;;;;;;;;
2023/08/30 02:14:49;;;;;;;2.4;1.3;;;;;;;;;;;;;
2023/08/30 02:17:16;;;;;;;1.9;1.2;;;;;;;;;;;;;
2023/08/30 02:19:41;;;;;;;1.7;1.1;;;;;;;;;;;;;
2023/08/30 02:22:07;;;;;;;1.9;1.2;;;;;;;;;;;;;
2023/08/30 02:24:32;;;;;;;1.8;1;;;;;;;;;;;;;
2023/08/30 02:26:58;;;;;;;2;0.9;;;;;;;;;;;;;
2023/08/30 02:29:23;;;;;;;2.5;0.8;;;;;;;;;;;;;
2023/08/30 02:31:49;;;;;;;2.2;1.1;;;;;;;;;;;;;
2023/08/30 02:34:14;;;;;;;2;1;;;;;;;;;;;;;
2023/08/30 02:36:42;;;;;;;1.7;0.9;;;;;;;;;;;;;
2023/08/30 02:39:07;;;;;;;0.9;0.7;;;;;;;;;;;;;
2023/08/30 02:41:32;;;;;;;1.2;1.1;;;;;;;;;;;;;
2023/08/30 02:43:57;;;;;;;1.7;0.9;;;;;;;;;;;;;
2023/08/30 02:46:22;;;;;;;3.6;1.4;;;;;;;;;;;;;
2023/08/30 02:48:48;;;;;;;2.3;1.2;;;;;;;;;;;;;
2023/08/30 02:51:13;;;;;;;2.9;1.3;;;;;;;;;;;;;
2023/08/30 02:53:38;;;;;;;0.8;0.8;;;;;;;;;;;;;
2023/08/30 02:56:06;;;;;;;0.9;0.8;;;;;;;;;;;;;
2023/08/30 02:58:31;;;;;;;0.6;0.6;;;;;;;;;;;;;
2023/08/30 03:00:56;;;;;;;0.5;0.5;;;;;;;;;;;;;
2023/08/30 03:03:21;;;;;;;0.7;0.7;;;;;;;;;;;;;
2023/08/30 03:05:46;;;;;;;1;0.9;;;;;;;;;;;;;
2023/08/30 03:08:12;;;;;;;2.2;1;;;;;;;;;;;;;
2023/08/30 03:10:37;;;;;;;1.7;0.9;;;;;;;;;;;;;
2023/08/30 03:13:05;;;;;;;0.7;0.7;;;;;;;;;;;;;
2023/08/30 03:15:29;;;;;;;1;0.7;;;;;;;;;;;;;
2023/08/30 03:17:56;;;;;;;1;0.8;;;;;;;;;;;;;
2023/08/30 03:20:21;;;;;;;0.8;0.7;;;;;;;;;;;;;
2023/08/30 03:22:46;;;;;;;2.6;1;;;;;;;;;;;;;
2023/08/30 03:25:11;;;;;;;0.7;0.7;;;;;;;;;;;;;
2023/08/30 03:27:37;;;;;;;1.1;0.8;;;;;;;;;;;;;
2023/08/30 03:30:02;;;;;;;1.9;1;;;;;;;;;;;;;
2023/08/30 03:32:28;;;;;;;0.7;0.7;;;;;;;;;;;;;
2023/08/30 03:34:53;;;;;;;0.7;0.7;;;;;;;;;;;;;
2023/08/30 03:37:20;;;;;;;0.9;0.8;;;;;;;;;;;;;
2023/08/30 03:39:45;;;;;;;2;1;;;;;;;;;;;;;
2023/08/30 03:42:12;;;;;;;2.8;1.5;;;;;;;;;;;;;
2023/08/30 03:44:38;;;;;;;3.3;1.2;;;;;;;;;;;;;
2023/08/30 03:47:03;;;;;;;2.4;1.3;;;;;;;;;;;;;
2023/08/30 03:49:29;;;;;;;1.6;1.3;;;;;;;;;;;;;
2023/08/30 03:51:55;;;;;;;2.2;1.1;;;;;;;;;;;;;
2023/08/30 03:54:20;;;;;;;2.6;1.3;;;;;;;;;;;;;
2023/08/30 03:56:48;;;;;;;1.8;1;;;;;;;;;;;;;
2023/08/30 03:59:13;;;;;;;0.7;0.6;;;;;;;;;;;;;
2023/08/30 04:02:32;;;;;;;1.5;1.3;;;;;;;12.85;98.36035;931.7017;;;;
2023/08/30 04:05:00;;;;;;;2.8;1.4;;;;;;;12.79;98.55469;931.758;;;;
2023/08/30 04:07:25;;;;;;;1.9;1.3;;;;;;;12.7;98.78613;931.8003;;;;
2023/08/30 04:09:55;;;;;;;1.6;1.2;;;;;;;12.74;98.88672;931.8016;;;;
2023/08/30 04:12:20;;;;;;;1.5;1.1;;;;;;;12.82;98.62012;931.7994;;;;
2023/08/30 04:14:51;;;;;;;0.8;0.8;;;;;;;12.81;98.15723;931.7905;;;;
2023/08/30 04:17:21;;;;;;;1.5;1;;;;;;;12.8;98.91211;931.7555;;;;
2023/08/30 04:19:50;;;;;;;1.4;0.9;;;;;;;12.68;99.69824;931.735;;;;
2023/08/30 04:22:16;;;;;;;4.2;1.2;;;;;;;12.55;100;931.7143;;;;
2023/08/30 04:24:44;;;;;;;1.7;1.1;;;;;;;12.57;99.98535;931.7285;;;;
2023/08/30 04:27:09;;;;;;;1.2;0.9;;;;;;;12.59;99.93164;931.7467;;;;
2023/08/30 04:29:38;;;;;;;1.6;1.1;;;;;;;12.63;99.9541;931.7809;;;;
2023/08/30 04:32:03;;;;;;;1.6;1.1;;;;;;;12.44;99.71484;931.7511;;;;
2023/08/30 04:34:29;;;;;;;1.3;1.2;;;;;;;12.5;100;931.7147;;;;
2023/08/30 04:36:53;;;;;;;1.9;0.9;;;;;;;12.59;100;931.7435;;;;
2023/08/30 04:39:19;;;;;;;1.1;1;;;;;;;12.6;100;931.7083;;;;
2023/08/30 04:41:44;;;;;;;1;0.9;;;;;;;12.48;100;931.7317;;;;
2023/08/30 04:44:12;;;;;;;2.3;1.1;;;;;;;12.49;100;931.6613;;;;
2023/08/30 04:46:37;;;;;;;1.1;1;;;;;;;12.45;100;931.6561;;;;
2023/08/30 04:49:03;;;;;;;1.1;1;;;;;;;12.41;100;931.6672;;;;
2023/08/30 04:51:29;;;;;;;1.4;1;;;;;;;12.44;100;931.7369;;;;
2023/08/30 04:53:54;;;;;;;1.8;1.1;;;;;;;12.55;100;931.7286;;;;
2023/08/30 04:56:20;;;;;;;1.2;1.1;;;;;;;12.68;100;931.7566;;;;
2023/08/30 04:58:45;;;;;;;2.1;1;;;;;;;12.75;99.61328;931.7534;;;;
2023/08/30 05:01:14;;;;;;;1.6;0.9;;;;;;;12.77;98.81445;931.7772;;;;
2023/08/30 05:03:38;;;;;;;1.6;1.1;;;;;;;12.79;99.23145;931.8274;;;;
2023/08/30 05:06:04;;;;;;;0.8;0.7;;;;;;;12.71;100;931.8465;;;;
2023/08/30 05:08:29;;;;;;;1.5;0.8;;;;;;;12.72;100;931.8017;;;;
2023/08/30 05:10:58;;;;;;;1.8;1.2;;;;;;;12.82;100;931.7955;;;;
2023/08/30 05:13:23;;;;;;;1.9;1.1;;;;;;;12.74;99.94238;931.7576;;;;
2023/08/30 05:15:49;;;;;;;1.5;1.2;;;;;;;12.79;99.43848;931.8474;;;;
2023/08/30 05:18:15;;;;;;;0.9;0.9;;;;;;;12.87;99.39941;931.8373;;;;
2023/08/30 05:20:42;;;;;;;1.5;1.2;;;;;;;12.99;99.31152;931.8513;;;;
2023/08/30 05:23:07;;;;;;;1.1;1;;;;;;;13.03;99.00977;931.8528;;;;
2023/08/30 05:25:32;;;;;;;0.9;0.9;;;;;;;12.96;98.55859;931.7869;;;;
2023/08/30 05:27:57;;;;;;;1.1;1;;;;;;;12.87;98.63965;931.8677;;;;
2023/08/30 05:30:26;;;;;;;1.2;1;;;;;;;12.8;98.4873;931.8713;;;;
2023/08/30 05:32:51;;;;;;;1.4;1.1;;;;;;;12.76;98.94824;931.8397;;;;
2023/08/30 05:35:16;;;;;;;1.1;1;;;;;;;12.8;98.77441;931.8513;;;;
2023/08/30 05:37:41;;;;;;;1.1;1;;;;;;;12.87;99.64063;931.8684;;;;
2023/08/30 05:40:09;;;;;;;0.8;0.8;;;;;;;12.73;99.16211;931.8463;;;;
2023/08/30 05:42:33;;;;;;;1.6;0.9;;;;;;;12.78;99.55078;931.7835;;;;
2023/08/30 05:45:03;;;;;;;0.8;0.8;;;;;;;12.85;99.12012;931.8631;;;;
2023/08/30 05:47:28;;;;;;;1.3;0.8;;;;;;;12.71;99.30273;931.8442;;;;
2023/08/30 05:49:55;;;;;;;1;1;;;;;;;12.69;99.55371;931.8715;;;;
2023/08/30 05:52:20;;;;;;;0.7;0.7;;;;;;;12.73;99.5498;931.8408;;;;
2023/08/30 05:54:46;;;;;;;1;0.9;;;;;;;12.74;99.37988;931.887;;;;
2023/08/30 05:57:11;;;;;;;1.8;0.9;;;;;;;12.77;99.21582;931.9188;;;;
2023/08/30 05:59:39;;;;;;;1.2;0.8;;;;;;;12.73;98.67773;931.9255;;;;
2023/08/30 06:02:04;;;;;;;0.9;0.8;;;;;;;12.77;98.30957;931.9131;;;;
2023/08/30 06:04:32;;;;;;;1.7;1.1;;;;;;;12.79;98.11816;931.9177;;;;
2023/08/30 06:06:56;;;;;;;1.5;1;;;;;;;12.7;97.60449;931.8914;;;;
2023/08/30 06:09:23;;;;;;;1.3;0.8;;;;;;;12.72;98.67773;931.864;;;;
2023/08/30 06:11:48;;;;;;;0.7;0.7;;;;;;;12.78;98.32324;931.8115;;;;
2023/08/30 06:14:15;;;;;;;1;0.9;;;;;;;12.8;98.14355;931.9231;;;;
2023/08/30 06:16:43;;;;;;;1.7;0.9;;;;;;;12.96;98.88965;931.949;;;;
2023/08/30 06:19:05;;;;;;;1.1;1;;;;;;;13.09;99.09277;931.9481;;;;
2023/08/30 06:21:32;;;;;;;1.1;1;;;;;;;13.13;97.3916;931.9908;;;;
2023/08/30 06:23:58;;;;;;;1;0.9;;;;;;;13.23;97.80469;932.0039;;;;
2023/08/30 06:26:23;;;;;;;1.2;1.1;;;;;;;13.2;97.3252;932.0184;;;;
2023/08/30 06:28:48;;;;;;;1.1;1;;;;;;;13.21;97.65137;932.0641;;;;
2023/08/30 06:31:15;;;;;;;1.5;1.1;;;;;;;13.29;96.65625;932.0648;;;;
2023/08/30 06:33:41;;;;;;;0.9;0.9;;;;;;;13.15;95.83398;932.0497;;;;
2023/08/30 06:36:06;;;;;;;1.1;1;;;;;;;13.29;95.8291;932.0097;;;;
2023/08/30 06:38:31;;;;;;;1.9;0.8;;;;;;;13.34;95.01367;932.0083;;;;
2023/08/30 06:40:58;;;;;;;1.7;0.9;;;;;;;13.45;95.19629;932.0178;;;;
2023/08/30 06:43:23;;;;;;;2;1.4;;;;;;;13.54;94.64258;931.907;;;;
2023/08/30 06:45:49;;;;;;;0.9;0.9;;;;;;;13.51;95.22363;932.0162;;;;
2023/08/30 06:48:14;;;;;;;3.3;1;;;;;;;13.55;95.13965;931.9894;;;;
2023/08/30 06:50:42;;;;;;;2.1;1.3;;;;;;;13.73;94.8457;932.0129;;;;
2023/08/30 06:53:09;;;;;;;1.6;0.9;;;;;;;13.7;94.75879;932.0597;;;;
2023/08/30 06:55:37;;;;;;;5.7;1.3;;;;;;;13.59;93.7793;932.0008;;;;
2023/08/30 06:58:01;;;;;;;0.8;0.8;;;;;;;13.62;94.37109;931.9984;;;;
2023/08/30 07:00:28;;;;;;;1.1;1;;;;;;;13.66;94.49609;931.9403;;;;
2023/08/30 07:02:53;;;;;;;1.1;1;;;;;;;13.67;93.93457;931.9153;;;;
2023/08/30 07:05:21;;;;;;;1.4;1.1;;;;;;;13.64;93.66406;931.9548;;;;
2023/08/30 07:07:46;;;;;;;1;1;;;;;;;13.78;93.33691;931.9227;;;;
2023/08/30 07:10:12;;;;;;;1.1;0.8;;;;;;;13.68;92.30371;931.9073;;;;
2023/08/30 07:12:37;;;;;;;1;0.9;;;;;;;13.6;92.7002;931.9272;;;;
2023/08/30 07:15:04;;;;;;;1.6;1.1;;;;;;;13.66;93.80762;931.9001;;;;
2023/08/30 07:17:28;;;;;;;1.2;0.8;;;;;;;13.8;91.66309;931.9592;;;;
2023/08/30 07:19:53;;;;;;;0.7;0.7;;;;;;;13.72;91.17383;931.945;;;;
2023/08/30 07:22:20;;;;;;;1.5;1;;;;;;;13.78;91.72656;931.978;;;;
2023/08/30 07:24:45;;;;;;;1;0.7;;;;;;;13.76;90.64258;931.9317;;;;
2023/08/30 07:27:14;;;;;;;1.1;1;;;;;;;13.77;92.2998;931.9677;;;;
2023/08/30 07:29:39;;;;;;;1.3;1.1;;;;;;;13.93;92.8877;931.9113;;;;
2023/08/30 07:32:06;;;;;;;1.4;1;;;;;;;14.11;91.79688;931.9531;;;;
2023/08/30 07:34:31;;;;;;;1;0.9;;;;;;;14.05;90.18359;931.9964;;;;
2023/08/30 07:37:01;;;;;;;2.4;0.8;;;;;;;14.08;89.19922;932.033;;;;
2023/08/30 07:39:26;;;;;;;1.3;1.1;;;;;;;14.26;91.0918;932.0297;;;;
2023/08/30 07:41:52;;;;;;;1.7;1.1;;;;;;;14.35;90.29297;932.0316;;;;
2023/08/30 07:44:19;;;;;;;1.5;1.4;;;;;;;14.47;91.05469;932.0104;;;;
2023/08/30 07:46:45;;;;;;;1.1;1;;;;;;;14.49;90.35352;932.0109;;;;
2023/08/30 07:49:10;;;;;;;2.8;1;;;;;;;14.47;89.59082;931.9816;;;;
2023/08/30 07:51:36;;;;;;;2.2;1;;;;;;;14.58;89.22168;932.0142;;;;
2023/08/30 07:54:01;;;;;;;1.8;1.1;;;;;;;14.7;89.26855;931.9757;;;;
2023/08/30 07:56:29;;;;;;;1.4;1;;;;;;;14.87;88.76172;931.9811;;;;
2023/08/30 07:58:52;;;;;;;2;1.2;;;;;;;15;89.6875;931.9941;;;;
2023/08/30 08:01:17;;;;;;;1.5;1.1;;;;;;;15.07;86.71387;932.0356;;;;
2023/08/30 08:03:43;;;;;;;1.5;1;;;;;;;15.23;87.18457;931.927;;;;
2023/08/30 08:06:08;;;;;;;1.6;1.1;;;;;;;15.33;87.21387;931.9934;;;;
2023/08/30 08:08:35;;;;;;;1.6;1.1;;;;;;;15.37;87.25977;931.9919;;;;
2023/08/30 08:11:01;;;;;;;1.4;0.8;;;;;;;15.45;84.09863;931.9289;;;;
2023/08/30 08:13:31;;;;;;;1.7;1;;;;;;;15.68;82.87305;931.8527;;;;
2023/08/30 08:15:55;;;;;;;1.4;1;;;;;;;15.66;82.1416;931.9316;;;;
2023/08/30 08:18:22;;;;;;;1.2;1;;;;;;;15.9;81.53809;931.9359;;;;
2023/08/30 08:20:47;;;;;;;2.1;0.8;;;;;;;16.15;81.57422;931.9155;;;;
2023/08/30 08:23:12;;;;;;;2;1;;;;;;;16.52;80.90234;931.9486;;;;
2023/08/30 08:25:37;;;;;;;1.1;0.8;;;;;;;16.63;78.89551;931.9302;;;;
2023/08/30 08:28:03;;;;;;;1.2;1;;;;;;;16.63;78.98828;931.9189;;;;
2023/08/30 08:30:28;;;;;;;1.6;0.9;;;;;;;16.71;79.66309;931.939;;;;
2023/08/30 08:32:55;;;;;;;2;1.2;;;;;;;16.78;77.24414;931.901;;;;
2023/08/30 08:35:20;;;;;;;0.8;0.8;;;;;;;16.84;75.78223;931.9475;;;;
2023/08/30 08:37:50;;;;;;;0.8;0.7;;;;;;;16.82;75.22461;931.9028;;;;
2023/08/30 08:40:15;;;;;;;1.8;1.1;;;;;;;16.85;75.00977;931.9086;;;;
2023/08/30 08:42:40;;;;;;;1.1;1;;;;;;;16.92;76.88574;931.8635;;;;
2023/08/30 08:45:05;;;;;;;1;0.8;;;;;;;17.02;77.69238;931.8007;;;;
2023/08/30 08:47:30;;;;;;;1.1;0.9;;;;;;;17.1;74.10059;931.8292;;;;
2023/08/30 08:49:58;;;;;;;0.8;0.8;;;;;;;17.3;74.34277;931.7897;;;;
2023/08/30 08:52:23;;;;;;;0.8;0.8;;;;;;;17.43;73.49609;931.7823;;;;
2023/08/30 08:54:48;;;;;;;0.9;0.9;;;;;;;17.76;74.30664;931.7527;;;;
2023/08/30 08:57:14;;;;;;;1.1;0.7;;;;;;;17.61;72.08691;931.7396;;;;
2023/08/30 08:59:39;;;;;;;1.3;0.9;;;;;;;17.95;70.02832;931.7558;;;;
2023/08/30 09:02:05;;;;;;;2.4;0.8;;;;;;;18.02;69.13379;931.7288;;;;
2023/08/30 09:04:30;;;;;;;1.3;0.8;;;;;;;17.94;70.21289;931.7117;;;;
2023/08/30 09:06:57;;;;;;;0.7;0.6;;;;;;;17.69;68.97852;931.6703;;;;
2023/08/30 09:09:23;;;;;;;1.1;0.8;;;;;;;17.91;69.48828;931.678;;;;
2023/08/30 09:11:50;;;;;;;1.3;0.9;;;;;;;18.19;70.50879;931.6481;;;;
2023/08/30 09:14:16;;;;;;;1.3;0.8;;;;;;;18.27;71.41602;931.7112;;;;
2023/08/30 09:16:41;;;;;;;1.4;0.8;;;;;;;17.83;66.93262;931.6842;;;;
2023/08/30 09:19:07;;;;;;;1;0.7;;;;;;;17.5;69.49316;931.6549;;;;
2023/08/30 09:21:31;;;;;;;0.9;0.9;;;;;;;17.91;68.94238;931.5499;;;;
2023/08/30 09:23:57;;;;;;;1.5;0.9;;;;;;;18.37;67.13184;931.5558;;;;
2023/08/30 09:26:23;;;;;;;1.3;0.8;;;;;;;18.88;69.88672;931.5615;;;;
2023/08/30 09:28:49;;;;;;;1.1;1;;;;;;;18.87;65.15723;931.541;;;;
2023/08/30 09:31:14;;;;;;;0.8;0.8;;;;;;;18.98;64.45313;931.5784;;;;
2023/08/30 09:33:41;;;;;;;1.1;0.9;;;;;;;18.38;70.8877;931.5814;;;;
2023/08/30 09:36:07;;;;;;;0.7;0.7;;;;;;;19.26;65.28613;931.5178;;;;
2023/08/30 09:38:35;;;;;;;0.6;0.6;;;;;;;19.76;61.52344;931.4911;;;;
2023/08/30 09:41:00;;;;;;;1.2;0.9;;;;;;;19.47;61.50781;931.4429;;;;
2023/08/30 09:43:27;;;;;;;1;0.7;;;;;;;19.06;60.44824;931.405;;;;
2023/08/30 09:45:52;;;;;;;1.5;1;;;;;;;18.84;63.92188;931.3798;;;;
2023/08/30 09:48:26;;;;;;;0.9;0.8;;;;;;;18.29;64.09766;931.3826;;;;
2023/08/30 09:50:51;;;;;;;2;0.9;;;;;;;18.43;65.59375;931.3713;;;;
2023/08/30 09:53:16;;;;;;;1.2;0.8;;;;;;;18.77;63.41211;931.3035;;;;
2023/08/30 09:55:41;;;;;;;1.2;0.9;;;;;;;19.34;61.60547;931.3358;;;;
2023/08/30 09:58:09;;;;;;;1.1;0.8;;;;;;;19.67;62.40918;931.2729;;;;
2023/08/30 10:00:35;;;;;;;1.6;0.9;;;;;;;19.81;59.58301;931.267;;;;
2023/08/30 10:03:00;;;;;;;2.5;0.9;;;;;;;19.26;59.05469;931.2416;;;;
2023/08/30 10:05:25;;;;;;;1.7;0.8;;;;;;;19.59;62.22363;931.3008;;;;
2023/08/30 10:07:50;;;;;;;1;0.8;;;;;;;20.05;62.40527;931.248;;;;
2023/08/30 10:10:17;;;;;;;1.3;1;;;;;;;19.94;57.37207;931.2123;;;;
2023/08/30 10:12:42;;;;;;;1;1;;;;;;;19.88;57.46973;931.2064;;;;
2023/08/30 10:15:08;;;;;;;1.4;1;;;;;;;20.43;56.39746;931.1889;;;;
2023/08/30 10:17:34;;;;;;;1.7;0.9;;;;;;;20.56;56.40137;931.0712;;;;
2023/08/30 10:19:58;;;;;;;1;0.8;;;;;;;19.86;57.2334;931.0966;;;;
2023/08/30 10:22:23;;;;;;;1.2;0.9;;;;;;;18.75;58.46289;931.0945;;;;
2023/08/30 10:24:49;;;;;;;1.1;0.8;;;;;;;19.13;60.59766;931.095;;;;
2023/08/30 10:27:14;;;;;;;1;0.8;;;;;;;19.21;56.75293;931.073;;;;
2023/08/30 10:29:40;;;;;;;0.9;0.7;;;;;;;19.36;55.66699;931.0637;;;;
2023/08/30 10:32:06;;;;;;;0.7;0.6;;;;;;;19.63;51.8877;931.0815;;;;
2023/08/30 10:34:31;;;;;;;0.8;0.8;;;;;;;20.34;53.875;931.0269;;;;
2023/08/30 10:36:56;;;;;;;1;0.8;;;;;;;20.81;52.13184;930.9724;;;;
2023/08/30 10:39:21;;;;;;;1.5;0.8;;;;;;;21.14;53.05957;931.0214;;;;
2023/08/30 10:42:26;;;;;;;0.8;0.7;;;;;;;21.46;50.14844;931.0154;;;;
2023/08/30 10:44:52;;;;;;;1.3;0.8;;;;;;;21.41;51.87598;931.0228;;;;
2023/08/30 10:47:17;;;;;;;0.9;0.8;;;;;;;21.48;51.33398;931.0014;;;;
2023/08/30 10:49:42;;;;;;;1.5;0.8;;;;;;;21.59;52.27051;931.0517;;;;
2023/08/30 10:52:09;;;;;;;1;1;;;;;;;21.59;50.73633;931.0201;;;;
2023/08/30 10:54:35;;;;;;;0.9;0.7;;;;;;;21.77;50.01953;930.9758;;;;
2023/08/30 10:57:01;;;;;;;1;0.8;;;;;;;21.75;50.24023;930.9783;;;;
2023/08/30 10:59:25;;;;;;;1.5;0.7;;;;;;;21.44;51.85547;930.8817;;;;
2023/08/30 11:01:50;;;;;;;0.7;0.7;;;;;;;21.2;53.88672;930.8889;;;;
2023/08/30 11:04:15;;;;;;;0.7;0.7;;;;;;;21.06;51.43652;930.9338;;;;
2023/08/30 11:06:41;;;;;;;1.5;0.9;;;;;;;20.57;52.96777;930.8549;;;;
2023/08/30 11:09:07;;;;;;;0.7;0.7;;;;;;;20.49;56.01953;930.8458;;;;
2023/08/30 11:11:34;;;;;;;1;0.7;;;;;;;19.98;60.34082;930.8682;;;;
2023/08/30 11:13:59;;;;;;;0.9;0.8;;;;;;;19.6;54.74121;930.8472;;;;
2023/08/30 11:16:27;;;;;;;0.8;0.8;;;;;;;19.16;63.22168;930.9034;;;;
2023/08/30 11:18:52;;;;;;;1.1;0.7;;;;;;;19.58;58.58496;930.9075;;;;
2023/08/30 11:21:18;;;;;;;1.5;0.8;;;;;;;19.27;58.17188;930.9562;;;;
2023/08/30 11:23:43;;;;;;;1.5;1;;;;;;;19.13;57.93164;930.9504;;;;
2023/08/30 11:26:08;;;;;;;1.3;0.8;;;;;;;19.43;50.74609;930.9258;;;;
2023/08/30 11:28:33;;;;;;;0.7;0.7;;;;;;;19.45;56.15527;930.9008;;;;
2023/08/30 11:30:59;;;;;;;0.6;0.6;;;;;;;20.1;49.75;930.9219;;;;
2023/08/30 11:33:24;;;;;;;0.7;0.7;;;;;;;20.59;50.54102;930.8386;;;;
2023/08/30 11:35:51;;;;;;;1.9;0.9;;;;;;;20.94;53.5625;930.9086;;;;
2023/08/30 11:38:16;;;;;;;0.6;0.6;;;;;;;20.88;53.59082;930.9072;;;;
2023/08/30 11:40:42;;;;;;;1.7;0.8;;;;;;;20.82;47.72656;930.8488;;;;
2023/08/30 11:43:07;;;;;;;0.8;0.8;;;;;;;20.89;47.99121;930.8436;;;;
2023/08/30 11:45:32;;;;;;;1.2;0.8;;;;;;;21.25;49.78613;930.8244;;;;
2023/08/30 11:47:59;;;;;;;0.9;0.7;;;;;;;21.61;47.20313;930.8094;;;;
2023/08/30 11:50:23;;;;;;;1.8;0.9;;;;;;;21.89;50.49023;930.8102;;;;
2023/08/30 11:52:51;;;;;;;0.8;0.7;;;;;;;21.83;47.95313;930.7521;;;;
2023/08/30 11:55:16;;;;;;;0.7;0.7;;;;;;;22.5;45.95996;930.7933;;;;
2023/08/30 11:57:47;;;;;;;0.7;0.7;;;;;;;22.4;48.81152;930.8083;;;;
2023/08/30 12:00:15;;;;;;;0.8;0.8;;;;;;;22.81;45.99219;930.8056;;;;
2023/08/30 12:02:40;;;;;;;0.9;0.8;;;;;;;22.93;44.66504;930.8283;;;;
2023/08/30 12:05:05;;;;;;;0.8;0.8;;;;;;;22.63;47.79297;930.8633;;;;
2023/08/30 12:07:31;;;;;;;1.4;0.6;;;;;;;23.35;48.70508;930.8419;;;;
2023/08/30 12:09:56;;;;;;;0.8;0.8;;;;;;;23.24;45.39063;930.7892;;;;
2023/08/30 12:12:23;;;;;;;0.9;0.7;;;;;;;23.9;44.36328;930.8336;;;;
2023/08/30 12:14:48;;;;;;;1;0.9;;;;;;;23.45;45.61133;930.7813;;;;
2023/08/30 12:17:14;;;;;;;0.7;0.7;;;;;;;22.56;47.31445;930.8205;;;;
2023/08/30 12:19:40;;;;;;;1.6;0.8;;;;;;;22.55;48.0293;930.7803;;;;
2023/08/30 12:22:05;;;;;;;1.7;0.7;;;;;;;22.46;52.37402;930.8112;;;;
2023/08/30 12:24:31;;;;;;;1;0.6;;;;;;;22.03;50.62305;930.7766;;;;
2023/08/30 12:26:57;;;;;;;1.1;0.8;;;;;;;21.92;53.28223;930.769;;;;
2023/08/30 12:29:24;;;;;;;1.2;0.8;;;;;;;20.93;53.45508;930.7578;;;;
2023/08/30 12:31:49;;;;;;;0.7;0.7;;;;;;;21.34;53.70508;930.7181;;;;
2023/08/30 12:34:15;;;;;;;0.9;0.8;;;;;;;20.85;54.35742;930.7126;;;;
2023/08/30 12:36:40;;;;;;;0.8;0.7;;;;;;;20.75;55.3623;930.7173;;;;
2023/08/30 12:39:06;;;;;;;1.2;0.9;;;;;;;20.48;56.4043;930.6495;;;;
2023/08/30 12:41:31;;;;;;;1.1;0.9;;;;;;;20.38;57.00879;930.6947;;;;
2023/08/30 12:43:56;;;;;;;1.1;0.8;;;;;;;20.45;57.11035;930.6714;;;;
2023/08/30 12:46:21;;;;;;;1.6;0.8;;;;;;;19.71;58.03027;930.6398;;;;
2023/08/30 12:48:48;;;;;;;0.9;0.9;;;;;;;19.77;63.01855;930.6877;;;;
2023/08/30 12:51:14;;;;;;;1.3;0.9;;;;;;;19.48;62.04492;930.617;;;;
2023/08/30 12:53:40;;;;;;;0.8;0.8;;;;;;;19.57;57.52344;930.6852;;;;
2023/08/30 12:56:05;;;;;;;0.6;0.6;;;;;;;19.6;59.31055;930.6721;;;;
2023/08/30 12:58:30;;;;;;;1.3;0.8;;;;;;;19.66;57.86035;930.6409;;;;
2023/08/30 13:00:55;;;;;;;1;0.7;;;;;;;19.61;56.02441;930.6046;;;;
2023/08/30 13:03:24;;;;;;;2.2;0.9;;;;;;;19.42;55.90723;930.6483;;;;
2023/08/30 13:05:49;;;;;;;0.6;0.6;;;;;;;19.66;55.83203;930.6225;;;;
2023/08/30 13:08:14;;;;;;;2.1;0.9;;;;;;;19.87;61.0498;930.5839;;;;
2023/08/30 13:10:39;;;;;;;0.6;0.6;;;;;;;20.41;58.33301;930.6314;;;;
2023/08/30 13:13:06;;;;;;;1.7;1;;;;;;;20.92;61.26563;930.5898;;;;
2023/08/30 13:15:31;;;;;;;0.9;0.7;;;;;;;20.6;55.32031;930.5769;;;;
2023/08/30 13:17:57;;;;;;;1.9;0.8;;;;;;;20.74;56.44922;930.6149;;;;
2023/08/30 13:20:24;;;;;;;1;0.8;;;;;;;21.17;57.52051;930.6127;;;;
2023/08/30 13:22:47;;;;;;;0.7;0.7;;;;;;;21.28;56.77441;930.5762;;;;
2023/08/30 13:25:15;;;;;;;0.7;0.7;;;;;;;21.24;54.3125;930.5403;;;;
2023/08/30 13:27:42;;;;;;;1.5;0.9;;;;;;;21.54;52.32324;930.517;;;;
2023/08/30 13:30:07;;;;;;;1;0.7;;;;;;;21;55.07813;930.5103;;;;
2023/08/30 13:32:37;;;;;;;1.1;1;;;;;;;20.97;54.34961;930.481;;;;
2023/08/30 13:35:02;;;;;;;1;0.9;;;;;;;20.64;54.55469;930.48;;;;
2023/08/30 13:37:29;;;;;;;0.8;0.8;;;;;;;20.92;55.95605;930.4849;;;;
2023/08/30 13:39:54;;;;;;;0.9;0.9;;;;;;;20.21;58.45898;930.4389;;;;
2023/08/30 13:42:20;;;;;;;1;0.7;;;;;;;20.29;57.11426;930.4345;;;;
2023/08/30 13:44:45;;;;;;;0.9;0.9;;;;;;;20.3;60.49121;930.4874;;;;
2023/08/30 13:47:10;;;;;;;0.7;0.7;;;;;;;20.44;57.65918;930.4944;;;;
2023/08/30 13:49:35;;;;;;;2.2;0.9;;;;;;;20.27;58.10449;930.5146;;;;
2023/08/30 13:52:00;;;;;;;0.7;0.6;;;;;;;20.2;61.28223;930.5209;;;;
2023/08/30 13:54:28;;;;;;;1.7;1;;;;;;;20.06;60.06055;930.5122;;;;
2023/08/30 13:56:52;;;;;;;1.4;1;;;;;;;20.14;59.72168;930.5637;;;;
2023/08/30 13:59:19;;;;;;;1.2;0.9;;;;;;;20.21;58.49414;930.5022;;;;
2023/08/30 14:01:44;;;;;;;0.9;0.8;;;;;;;19.85;60.83594;930.5469;;;;
2023/08/30 14:04:10;;;;;;;1;0.9;;;;;;;20.05;58.54297;930.5789;;;;
2023/08/30 14:06:35;;;;;;;1.1;0.6;;;;;;;19.73;62.2666;930.6284;;;;
2023/08/30 14:09:01;;;;;;;1.5;0.8;;;;;;;19.11;61.00391;930.6306;;;;
2023/08/30 14:11:26;;;;;;;1;0.9;;;;;;;19.15;63.98926;930.6511;;;;
2023/08/30 14:13:53;;;;;;;1.2;0.8;;;;;;;19.05;65.44043;930.6122;;;;
2023/08/30 14:16:18;;;;;;;1.1;1;;;;;;;18.75;62.48926;930.6072;;;;
2023/08/30 14:18:45;;;;;;;0.9;0.8;;;;;;;18.99;65.90918;930.6702;;;;
2023/08/30 14:21:10;;;;;;;1.2;0.9;;;;;;;18.95;64.50586;930.696;;;;
2023/08/30 14:23:36;;;;;;;1.1;1;;;;;;;18.89;65.51074;930.7335;;;;
2023/08/30 14:26:01;;;;;;;1;0.9;;;;;;;18.83;66.27051;930.7413;;;;
2023/08/30 14:28:26;;;;;;;1.2;0.8;;;;;;;18.78;66.33203;930.7838;;;;
2023/08/30 14:30:51;;;;;;;1.1;1;;;;;;;18.83;64.26953;930.8282;;;;
2023/08/30 14:33:18;;;;;;;0.7;0.7;;;;;;;18.92;64.13086;930.8008;;;;
2023/08/30 14:35:43;;;;;;;1.3;0.9;;;;;;;18.95;62.08789;930.7869;;;;
2023/08/30 14:38:10;;;;;;;1.3;1.1;;;;;;;18.9;67.01465;930.8064;;;;
2023/08/30 14:40:36;;;;;;;1.1;0.9;;;;;;;19.02;66.47363;930.8033;;;;
2023/08/30 14:43:01;;;;;;;1.8;0.8;;;;;;;18.9;64.26855;930.8234;;;;
2023/08/30 14:45:26;;;;;;;0.8;0.8;;;;;;;18.97;63.08984;930.8516;;;;
2023/08/30 14:47:54;;;;;;;1.2;1;;;;;;;19.05;63.98633;930.8387;;;;
2023/08/30 14:50:19;;;;;;;0.8;0.8;;;;;;;19.01;64.80762;930.793;;;;
2023/08/30 14:52:47;;;;;;;0.9;0.8;;;;;;;18.98;64.6748;930.8005;;;;
2023/08/30 14:55:12;;;;;;;2.7;1.1;;;;;;;18.78;68.24023;930.8621;;;;
2023/08/30 14:57:40;;;;;;;1.3;0.9;;;;;;;18.74;66.53613;930.8166;;;;
2023/08/30 15:00:05;;;;;;;0.8;0.8;;;;;;;18.85;66.0293;930.86;;;;
2023/08/30 15:02:32;;;;;;;0.7;0.7;;;;;;;18.65;65.91797;930.9688;;;;
2023/08/30 15:04:56;;;;;;;1.2;0.8;;;;;;;18.54;69.6582;931.0225;;;;
2023/08/30 15:07:22;;;;;;;1.7;1;;;;;;;18.45;69.74805;930.9875;;;;
2023/08/30 15:09:47;;;;;;;1;1;;;;;;;18.66;67.46582;931.019;;;;
2023/08/30 15:12:14;;;;;;;1.4;1.2;;;;;;;18.58;70.2334;931.0034;;;;
2023/08/30 15:14:41;;;;;;;1.6;1.2;;;;;;;18.62;68.70508;931.0242;;;;
2023/08/30 15:17:04;;;;;;;1.2;1.1;;;;;;;18.44;71.96777;931.0306;;;;
2023/08/30 15:19:31;;;;;;;2.2;0.9;;;;;;;18.4;72.28711;931.0469;;;;
2023/08/30 15:21:56;;;;;;;1.7;1.1;;;;;;;18.46;71.83105;931.079;;;;
2023/08/30 15:24:21;;;;;;;1.3;0.8;;;;;;;18.35;72.12695;931.0719;;;;
2023/08/30 15:26:47;;;;;;;1.2;1;;;;;;;18.44;69.11719;931.0767;;;;
2023/08/30 15:29:12;;;;;;;3.1;1.2;;;;;;;18.48;70.04297;931.0424;;;;
2023/08/30 15:31:37;;;;;;;1.3;1;;;;;;;18.34;71.55469;931.0933;;;;
2023/08/30 15:34:02;;;;;;;1.1;1;;;;;;;18.48;73.24121;931.1334;;;;
2023/08/30 15:36:29;;;;;;;1.4;1.2;;;;;;;18.34;75.72852;931.1286;;;;
2023/08/30 15:38:54;;;;;;;1.3;1.2;;;;;;;18.32;76.45801;931.1753;;;;